createdAt,value
2018-02-19T00:01:27.846Z,7.90
2018-02-19T00:03:55.469Z,7.90
2018-02-19T00:06:23.066Z,7.90
2018-02-19T00:08:51.382Z,8.00
2018-02-19T00:11:18.990Z,8.00
2018-02-19T00:13:49.482Z,8.00
2018-02-19T00:16:17.098Z,8.00
2018-02-19T00:18:44.666Z,8.00
2018-02-19T00:21:13.759Z,8.00
2018-02-19T00:23:42.104Z,7.90
2018-02-19T00:26:09.844Z,8.00
2018-02-19T00:28:37.517Z,7.90
2018-02-19T00:31:05.147Z,7.90
2018-02-19T00:33:32.788Z,7.90
2018-02-19T00:36:00.491Z,8.00
2018-02-19T00:38:28.082Z,8.00
2018-02-19T00:40:55.719Z,8.00
2018-02-19T00:43:25.087Z,7.90
2018-02-19T00:45:53.435Z,8.00
2018-02-19T00:48:21.017Z,8.00
2018-02-19T00:50:50.110Z,7.90
2018-02-19T00:53:20.063Z,7.90
2018-02-19T00:55:48.422Z,7.90
2018-02-19T00:58:16.742Z,7.90
2018-02-19T01:00:44.356Z,7.90
2018-02-19T01:03:11.974Z,7.90
2018-02-19T01:05:39.580Z,7.90
2018-02-19T01:08:07.178Z,7.90
2018-02-19T01:10:34.777Z,7.90
2018-02-19T01:13:02.353Z,7.90
2018-02-19T01:15:29.906Z,8.00
2018-02-19T01:17:57.486Z,8.00
2018-02-19T01:20:25.043Z,8.00
2018-02-19T01:22:52.647Z,8.00
2018-02-19T01:25:20.982Z,7.90
2018-02-19T01:27:48.572Z,7.90
2018-02-19T01:30:16.883Z,7.90
2018-02-19T01:32:44.536Z,7.90
2018-02-19T01:35:12.920Z,7.90
2018-02-19T01:37:40.535Z,7.90
2018-02-19T01:40:08.136Z,7.90
2018-02-19T01:42:36.480Z,7.90
2018-02-19T01:45:04.062Z,7.90
2018-02-19T01:47:31.674Z,7.90
2018-02-19T01:50:14.088Z,7.90
2018-02-19T01:52:41.700Z,7.90
2018-02-19T01:55:09.281Z,7.90
2018-02-19T01:57:36.919Z,8.00
2018-02-19T02:00:04.528Z,8.10
2018-02-19T02:02:32.114Z,8.10
2018-02-19T02:04:59.730Z,8.00
2018-02-19T02:07:27.297Z,8.00
2018-02-19T02:09:55.652Z,8.00
2018-02-19T02:12:23.214Z,8.00
2018-02-19T02:14:50.818Z,8.10
2018-02-19T02:17:18.596Z,8.10
2018-02-19T02:19:46.157Z,8.10
2018-02-19T02:22:13.754Z,8.10
2018-02-19T02:24:41.339Z,8.10
2018-02-19T02:27:08.922Z,8.10
2018-02-19T02:29:37.277Z,8.10
2018-02-19T02:32:04.830Z,8.10
2018-02-19T02:34:32.391Z,8.10
2018-02-19T02:37:00.784Z,8.10
2018-02-19T02:39:28.361Z,8.10
2018-02-19T02:41:56.707Z,8.10
2018-02-19T02:44:24.306Z,8.10
2018-02-19T02:46:52.656Z,8.20
2018-02-19T02:49:20.238Z,8.20
2018-02-19T02:51:47.834Z,8.30
2018-02-19T02:54:15.420Z,8.40
2018-02-19T02:56:43.714Z,8.30
2018-02-19T02:59:11.302Z,8.20
2018-02-19T03:01:38.900Z,8.40
2018-02-19T03:04:06.475Z,8.40
2018-02-19T03:06:34.065Z,8.50
2018-02-19T03:09:01.636Z,8.40
2018-02-19T03:11:29.730Z,8.40
2018-02-19T03:13:57.302Z,8.40
2018-02-19T03:16:24.918Z,8.30
2018-02-19T03:18:52.513Z,8.30
2018-02-19T03:21:20.096Z,8.30
2018-02-19T03:23:48.449Z,8.20
2018-02-19T03:26:16.035Z,8.20
2018-02-19T03:28:44.386Z,8.10
2018-02-19T03:31:12.011Z,8.10
2018-02-19T03:33:39.581Z,8.10
2018-02-19T03:36:07.153Z,8.10
2018-02-19T03:38:35.003Z,8.10
2018-02-19T03:41:02.572Z,8.10
2018-02-19T03:43:30.162Z,8.10
2018-02-19T03:45:57.769Z,8.20
2018-02-19T03:48:26.122Z,8.20
2018-02-19T03:50:53.688Z,8.20
2018-02-19T03:53:21.291Z,8.20
2018-02-19T03:55:49.629Z,8.30
2018-02-19T03:58:17.221Z,8.30
2018-02-19T04:00:44.835Z,8.30
2018-02-19T04:03:12.435Z,8.30
2018-02-19T04:05:39.987Z,8.20
2018-02-19T04:08:07.580Z,8.30
2018-02-19T04:10:35.939Z,8.40
2018-02-19T04:13:05.031Z,8.40
2018-02-19T04:15:34.155Z,8.30
2018-02-19T04:18:01.758Z,8.30
2018-02-19T04:20:29.350Z,8.30
2018-02-19T04:22:56.960Z,8.30
2018-02-19T04:25:25.372Z,8.30
2018-02-19T04:27:52.958Z,8.30
2018-02-19T04:30:20.556Z,8.30
2018-02-19T04:32:48.148Z,8.20
2018-02-19T04:35:15.756Z,8.20
2018-02-19T04:37:43.368Z,8.20
2018-02-19T04:40:10.957Z,8.30
2018-02-19T04:42:38.533Z,8.30
2018-02-19T04:45:10.668Z,8.30
2018-02-19T04:47:38.243Z,8.20
2018-02-19T04:50:05.839Z,8.30
2018-02-19T04:52:33.445Z,8.20
2018-02-19T04:55:01.049Z,8.10
2018-02-19T04:57:28.657Z,8.00
2018-02-19T04:59:56.980Z,8.00
2018-02-19T05:02:24.553Z,8.10
2018-02-19T05:04:52.165Z,8.10
2018-02-19T05:07:19.726Z,8.10
2018-02-19T05:09:48.104Z,8.10
2018-02-19T05:12:15.709Z,8.10
2018-02-19T05:14:43.293Z,8.10
2018-02-19T05:17:10.897Z,8.10
2018-02-19T05:19:39.290Z,8.30
2018-02-19T05:22:06.877Z,8.30
2018-02-19T05:24:34.527Z,8.30
2018-02-19T05:27:02.108Z,8.30
2018-02-19T05:29:29.716Z,8.20
2018-02-19T05:31:57.305Z,8.30
2018-02-19T05:34:24.916Z,8.20
2018-02-19T05:36:52.521Z,8.20
2018-02-19T05:39:20.223Z,8.20
2018-02-19T05:41:47.829Z,8.20
2018-02-19T05:44:15.430Z,8.30
2018-02-19T05:46:43.041Z,8.20
2018-02-19T05:49:10.650Z,8.10
2018-02-19T05:51:38.238Z,8.10
2018-02-19T05:54:05.860Z,8.10
2018-02-19T05:56:34.269Z,8.00
2018-02-19T05:59:01.845Z,8.00
2018-02-19T06:01:29.443Z,8.00
2018-02-19T06:03:57.043Z,8.00
2018-02-19T06:06:25.366Z,8.10
2018-02-19T06:08:52.998Z,8.10
2018-02-19T06:11:20.558Z,8.20
2018-02-19T06:13:48.147Z,8.20
2018-02-19T06:16:15.715Z,8.10
2018-02-19T06:18:43.312Z,8.10
2018-02-19T06:21:10.888Z,8.10
2018-02-19T06:23:39.266Z,8.00
2018-02-19T06:26:06.872Z,8.00
2018-02-19T06:28:34.466Z,8.10
2018-02-19T06:31:02.045Z,8.10
2018-02-19T06:33:31.373Z,8.00
2018-02-19T06:35:58.959Z,8.00
2018-02-19T06:38:26.548Z,8.00
2018-02-19T06:40:54.131Z,8.00
2018-02-19T06:43:21.715Z,8.00
2018-02-19T06:45:50.070Z,8.00
2018-02-19T06:48:17.630Z,8.00
2018-02-19T06:50:45.229Z,8.10
2018-02-19T06:53:12.841Z,7.70
2018-02-19T06:55:40.443Z,8.30
2018-02-19T06:58:08.791Z,8.20
2018-02-19T07:00:36.354Z,8.20
2018-02-19T07:03:03.958Z,8.10
2018-02-19T07:05:32.382Z,8.10
2018-02-19T07:07:59.950Z,8.10
2018-02-19T07:10:27.545Z,8.10
2018-02-19T07:12:56.633Z,8.10
2018-02-19T07:15:24.238Z,8.10
2018-02-19T07:17:51.825Z,8.10
2018-02-19T07:20:26.021Z,8.10
2018-02-19T07:22:53.603Z,8.10
2018-02-19T07:25:21.186Z,8.10
2018-02-19T07:27:48.815Z,8.10
2018-02-19T07:30:17.173Z,8.10
2018-02-19T07:32:45.530Z,8.10
2018-02-19T07:35:13.152Z,8.10
2018-02-19T07:37:40.713Z,8.10
2018-02-19T07:40:08.327Z,8.20
2018-02-19T07:42:35.949Z,8.20
2018-02-19T07:45:03.550Z,8.20
2018-02-19T07:47:31.168Z,8.20
2018-02-19T07:49:58.750Z,8.30
2018-02-19T07:52:26.368Z,8.30
2018-02-19T07:54:54.065Z,8.30
2018-02-19T07:57:21.646Z,8.40
2018-02-19T07:59:49.227Z,8.40
2018-02-19T08:02:16.814Z,8.40
2018-02-19T08:04:44.405Z,8.40
2018-02-19T08:07:12.004Z,8.40
2018-02-19T08:09:39.610Z,8.40
2018-02-19T08:12:07.204Z,8.40
2018-02-19T08:14:34.846Z,8.30
2018-02-19T08:17:02.461Z,8.30
2018-02-19T08:19:30.045Z,8.40
2018-02-19T08:21:59.134Z,8.40
2018-02-19T08:24:27.422Z,8.40
2018-02-19T08:26:54.987Z,8.40
2018-02-19T08:29:23.325Z,8.30
2018-02-19T08:31:50.942Z,8.30
2018-02-19T08:34:19.926Z,8.30
2018-02-19T08:36:48.274Z,8.20
2018-02-19T08:39:15.938Z,8.20
2018-02-19T08:41:43.527Z,8.30
2018-02-19T08:44:11.150Z,8.40
2018-02-19T08:46:41.946Z,8.40
2018-02-19T08:49:09.562Z,8.30
2018-02-19T08:51:37.147Z,8.40
2018-02-19T08:54:04.743Z,8.50
2018-02-19T08:56:32.429Z,8.40
2018-02-19T08:59:00.050Z,8.40
2018-02-19T09:01:27.639Z,8.50
2018-02-19T09:03:55.248Z,8.50
2018-02-19T09:06:22.834Z,8.60
2018-02-19T09:08:53.107Z,8.50
2018-02-19T09:11:20.760Z,8.50
2018-02-19T09:13:50.114Z,8.50
2018-02-19T09:16:17.694Z,8.50
2018-02-19T09:18:45.373Z,8.40
2018-02-19T09:21:12.988Z,8.50
2018-02-19T09:23:40.571Z,8.50
2018-02-19T09:26:08.155Z,8.50
2018-02-19T09:28:36.481Z,8.60
2018-02-19T09:31:04.285Z,8.60
2018-02-19T09:33:31.844Z,8.60
2018-02-19T09:35:59.415Z,8.60
2018-02-19T09:38:27.002Z,8.50
2018-02-19T09:40:56.782Z,8.50
2018-02-19T09:43:24.360Z,8.50
2018-02-19T09:45:51.939Z,8.50
2018-02-19T09:48:20.351Z,8.70
2018-02-19T09:50:47.946Z,8.70
2018-02-19T09:53:15.844Z,8.80
2018-02-19T09:55:43.500Z,8.80
2018-02-19T09:58:11.486Z,8.80
2018-02-19T10:00:39.191Z,8.80
2018-02-19T10:03:06.822Z,8.80
2018-02-19T10:05:34.426Z,8.70
2018-02-19T10:08:02.018Z,8.70
2018-02-19T10:10:29.594Z,8.80
2018-02-19T10:15:30.478Z,8.90
2018-02-19T10:17:58.158Z,9.00
2018-02-19T10:20:25.785Z,8.90
2018-02-19T10:22:53.364Z,9.00
2018-02-19T10:25:22.714Z,9.10
2018-02-19T10:27:50.299Z,9.10
2018-02-19T10:30:17.903Z,9.10
2018-02-19T10:32:45.570Z,9.10
2018-02-19T10:35:13.131Z,9.10
2018-02-19T10:37:41.458Z,9.20
2018-02-19T10:40:09.057Z,9.20
2018-02-19T10:42:37.382Z,9.30
2018-02-19T10:45:04.987Z,9.30
2018-02-19T10:47:32.558Z,9.30
2018-02-19T10:50:00.495Z,9.50
2018-02-19T10:52:28.110Z,9.50
2018-02-19T10:54:55.674Z,9.60
2018-02-19T10:57:24.020Z,9.70
2018-02-19T10:59:51.621Z,9.70
2018-02-19T11:02:19.977Z,9.70
2018-02-19T11:04:47.580Z,9.70
2018-02-19T11:07:15.147Z,9.60
2018-02-19T11:09:42.734Z,9.60
2018-02-19T11:12:10.319Z,9.50
2018-02-19T11:14:38.010Z,9.50
2018-02-19T11:17:06.344Z,9.60
2018-02-19T11:19:33.927Z,9.50
2018-02-19T11:22:01.527Z,9.50
2018-02-19T11:24:29.219Z,9.50
2018-02-19T11:26:57.531Z,9.40
2018-02-19T11:29:26.754Z,9.50
2018-02-19T11:31:54.367Z,9.50
2018-02-19T11:34:21.995Z,9.60
2018-02-19T11:36:49.695Z,9.70
2018-02-19T11:39:17.365Z,9.80
2018-02-19T11:41:45.342Z,10.00
2018-02-19T11:44:12.969Z,10.00
2018-02-19T11:46:40.629Z,10.00
2018-02-19T11:49:08.331Z,10.00
2018-02-19T11:51:35.973Z,10.10
2018-02-19T11:54:03.666Z,10.20
2018-02-19T11:56:31.262Z,10.30
2018-02-19T11:58:59.566Z,10.30
2018-02-19T12:01:27.204Z,10.40
2018-02-19T12:03:54.841Z,10.40
2018-02-19T12:06:22.443Z,10.50
2018-02-19T12:08:50.073Z,10.60
2018-02-19T12:11:17.638Z,10.60
2018-02-19T12:13:45.296Z,10.70
2018-02-19T12:16:13.614Z,10.70
2018-02-19T12:18:41.237Z,10.70
2018-02-19T12:21:09.822Z,10.80
2018-02-19T12:23:38.687Z,10.90
2018-02-19T12:26:06.318Z,11.10
2018-02-19T12:28:35.505Z,11.40
2018-02-19T12:31:03.196Z,11.30
2018-02-19T12:33:30.834Z,11.50
2018-02-19T12:36:00.626Z,11.80
2018-02-19T12:38:28.289Z,11.80
2018-02-19T12:40:56.999Z,12.00
2018-02-19T12:43:24.975Z,12.10
2018-02-19T12:45:52.883Z,12.30
2018-02-19T12:48:21.739Z,12.50
2018-02-19T12:50:50.846Z,12.70
2018-02-19T12:53:18.413Z,12.60
2018-02-19T12:55:46.911Z,12.90
2018-02-19T12:58:14.507Z,12.90
2018-02-19T13:00:42.164Z,13.10
2018-02-19T13:03:10.042Z,13.30
2018-02-19T13:05:37.669Z,13.50
2018-02-19T13:08:05.340Z,13.40
2018-02-19T13:10:32.940Z,13.30
2018-02-19T13:13:00.548Z,13.10
2018-02-19T13:15:29.747Z,12.90
2018-02-19T13:17:57.348Z,12.90
2018-02-19T13:20:24.950Z,12.80
2018-02-19T13:22:52.558Z,12.70
2018-02-19T13:25:20.132Z,12.70
2018-02-19T13:27:47.715Z,12.70
2018-02-19T13:30:15.314Z,12.80
2018-02-19T13:32:42.881Z,12.70
2018-02-19T13:35:10.536Z,12.80
2018-02-19T13:37:38.200Z,12.80
2018-02-19T13:40:05.822Z,12.80
2018-02-19T13:42:33.387Z,12.80
2018-02-19T13:45:00.999Z,12.80
2018-02-19T13:47:29.338Z,12.80
2018-02-19T13:49:56.894Z,12.80
2018-02-19T13:52:24.486Z,12.80
2018-02-19T13:54:52.062Z,12.80
2018-02-19T13:57:19.652Z,12.80
2018-02-19T13:59:47.234Z,12.70
2018-02-19T14:02:15.661Z,12.70
2018-02-19T14:04:44.036Z,13.00
2018-02-19T14:07:11.615Z,13.00
2018-02-19T14:09:39.201Z,13.10
2018-02-19T14:12:06.846Z,13.00
2018-02-19T14:14:35.942Z,12.80
2018-02-19T14:17:05.059Z,12.80
2018-02-19T14:19:32.656Z,12.80
2018-02-19T14:22:00.226Z,12.70
2018-02-19T14:24:27.813Z,12.70
2018-02-19T14:26:55.401Z,12.60
2018-02-19T14:29:23.757Z,12.70
2018-02-19T14:31:51.362Z,12.70
2018-02-19T14:34:19.724Z,12.70
2018-02-19T14:36:47.316Z,12.60
2018-02-19T14:39:14.917Z,12.60
2018-02-19T14:41:42.487Z,12.60
2018-02-19T14:44:10.091Z,12.60
2018-02-19T14:46:39.813Z,12.70
2018-02-19T14:49:08.965Z,12.70
2018-02-19T14:51:37.694Z,12.70
2018-02-19T14:54:08.127Z,12.80
2018-02-19T14:56:35.740Z,12.80
2018-02-19T14:59:05.305Z,12.50
2018-02-19T15:01:32.928Z,12.40
2018-02-19T15:04:00.536Z,12.50
2018-02-19T15:06:28.256Z,12.50
2018-02-19T15:08:56.653Z,12.40
2018-02-19T15:11:24.223Z,12.40
2018-02-19T15:13:51.818Z,12.40
2018-02-19T15:16:19.597Z,12.50
2018-02-19T15:18:47.217Z,12.70
2018-02-19T15:21:15.606Z,12.70
2018-02-19T15:23:43.212Z,12.70
2018-02-19T15:26:11.096Z,12.70
2018-02-19T15:28:38.956Z,12.70
2018-02-19T15:31:06.606Z,12.60
2018-02-19T15:33:34.214Z,12.60
2018-02-19T15:36:01.914Z,12.50
2018-02-19T15:38:29.644Z,12.40
2018-02-19T15:40:57.373Z,12.30
2018-02-19T15:43:24.935Z,12.30
2018-02-19T15:45:52.526Z,12.30
2018-02-19T15:48:20.914Z,12.60
2018-02-19T15:50:49.368Z,12.60
2018-02-19T15:53:17.616Z,12.60
2018-02-19T15:55:45.911Z,12.70
2018-02-19T15:58:13.507Z,12.70
2018-02-19T16:00:41.074Z,12.80
2018-02-19T16:03:08.674Z,12.80
2018-02-19T16:05:37.518Z,12.70
2018-02-19T16:08:05.102Z,12.70
2018-02-19T16:10:32.730Z,12.60
2018-02-19T16:13:00.323Z,12.60
2018-02-19T16:15:28.686Z,12.60
2018-02-19T16:17:56.375Z,12.50
2018-02-19T16:20:23.955Z,12.50
2018-02-19T16:22:52.397Z,12.40
2018-02-19T16:25:21.607Z,12.40
2018-02-19T16:27:49.885Z,12.40
2018-02-19T16:30:17.527Z,12.40
2018-02-19T16:32:45.190Z,12.30
2018-02-19T16:35:12.755Z,12.20
2018-02-19T16:37:40.312Z,12.30
2018-02-19T16:40:07.900Z,12.30
2018-02-19T16:42:35.506Z,12.20
2018-02-19T16:45:03.111Z,12.20
2018-02-19T16:47:30.706Z,12.10
2018-02-19T16:49:59.082Z,12.00
2018-02-19T16:52:27.415Z,12.00
2018-02-19T16:54:55.022Z,12.00
2018-02-19T16:57:22.656Z,12.00
2018-02-19T16:59:50.268Z,12.00
2018-02-19T17:02:17.864Z,12.00
2018-02-19T17:04:45.499Z,12.00
2018-02-19T17:07:13.246Z,12.00
2018-02-19T17:09:40.872Z,12.00
2018-02-19T17:12:08.463Z,12.00
2018-02-19T17:14:36.127Z,11.90
2018-02-19T17:17:03.948Z,11.90
2018-02-19T17:19:31.534Z,11.90
2018-02-19T17:21:59.155Z,11.90
2018-02-19T17:24:26.748Z,11.80
2018-02-19T17:26:54.342Z,11.80
2018-02-19T17:29:21.971Z,11.70
2018-02-19T17:31:49.573Z,11.70
2018-02-19T17:34:17.795Z,11.60
2018-02-19T17:36:46.157Z,11.60
2018-02-19T17:39:13.723Z,11.60
2018-02-19T17:41:41.323Z,11.50
2018-02-19T17:44:09.686Z,11.60
2018-02-19T17:46:37.307Z,11.60
2018-02-19T17:49:04.906Z,11.50
2018-02-19T17:51:33.270Z,11.50
2018-02-19T17:54:00.924Z,11.40
2018-02-19T17:56:28.559Z,11.50
2018-02-19T17:58:56.118Z,11.40
2018-02-19T18:01:24.118Z,11.40
2018-02-19T18:03:51.868Z,11.30
2018-02-19T18:06:19.653Z,11.30
2018-02-19T18:08:47.221Z,11.30
2018-02-19T18:11:14.846Z,11.40
2018-02-19T18:13:42.562Z,11.50
2018-02-19T18:16:10.913Z,11.50
2018-02-19T18:18:38.542Z,11.50
2018-02-19T18:21:06.260Z,11.50
2018-02-19T18:23:33.850Z,11.50
2018-02-19T18:26:01.570Z,11.50
2018-02-19T18:28:29.209Z,11.50
2018-02-19T18:30:56.758Z,11.50
2018-02-19T18:33:25.140Z,11.40
2018-02-19T18:35:53.586Z,11.30
2018-02-19T18:38:21.287Z,11.30
2018-02-19T18:40:48.926Z,11.20
2018-02-19T18:43:16.891Z,11.00
2018-02-19T18:45:44.523Z,10.90
2018-02-19T18:48:12.130Z,10.80
2018-02-19T18:50:39.748Z,10.70
2018-02-19T18:53:07.402Z,10.70
2018-02-19T18:55:35.047Z,10.70
2018-02-19T18:58:02.682Z,10.70
2018-02-19T19:00:30.384Z,10.60
2018-02-19T19:02:58.547Z,10.60
2018-02-19T19:05:26.202Z,10.70
2018-02-19T19:08:05.681Z,10.80
2018-02-19T19:10:57.998Z,10.80
2018-02-19T19:13:26.460Z,10.90
2018-02-19T19:15:54.057Z,10.90
2018-02-19T19:18:21.683Z,10.90
2018-02-19T19:20:49.302Z,10.90
2018-02-19T19:23:16.899Z,11.00
2018-02-19T19:25:44.492Z,11.00
2018-02-19T19:28:12.907Z,10.90
2018-02-19T19:30:40.584Z,10.90
2018-02-19T19:33:08.178Z,10.90
2018-02-19T19:35:35.860Z,10.90
2018-02-19T19:38:03.494Z,10.90
2018-02-19T19:40:31.142Z,10.90
2018-02-19T19:42:58.890Z,10.90
2018-02-19T19:45:26.727Z,10.90
2018-02-19T19:47:54.386Z,10.90
2018-02-19T19:50:22.092Z,10.90
2018-02-19T19:52:50.247Z,10.90
2018-02-19T19:55:18.753Z,10.80
2018-02-19T19:57:46.452Z,10.80
2018-02-19T20:00:15.342Z,10.80
2018-02-19T20:02:45.451Z,10.70
2018-02-19T20:05:13.118Z,10.70
2018-02-19T20:07:40.726Z,10.70
2018-02-19T20:10:08.375Z,10.60
2018-02-19T20:12:36.799Z,10.60
2018-02-19T20:15:04.446Z,10.60
2018-02-19T20:17:32.075Z,10.60
2018-02-19T20:20:00.767Z,10.60
2018-02-19T20:22:28.422Z,10.50
2018-02-19T20:24:56.880Z,10.50
2018-02-19T20:27:24.602Z,10.50
2018-02-19T20:29:52.302Z,10.50
2018-02-19T20:32:21.142Z,10.40
2018-02-19T20:34:48.754Z,10.40
2018-02-19T20:37:18.600Z,10.40
2018-02-19T20:39:46.260Z,10.30
2018-02-19T20:42:14.740Z,10.30
2018-02-19T20:44:42.464Z,10.30
2018-02-19T20:47:10.833Z,10.30
2018-02-19T20:49:38.861Z,10.30
2018-02-19T20:52:06.451Z,10.30
2018-02-19T20:54:34.020Z,10.40
2018-02-19T20:57:02.365Z,10.50
2018-02-19T20:59:30.028Z,10.40
2018-02-19T21:01:57.618Z,10.40
2018-02-19T21:04:25.191Z,10.50
2018-02-19T21:06:52.814Z,10.50
2018-02-19T21:09:20.503Z,10.60
2018-02-19T21:11:48.187Z,10.60
2018-02-19T21:14:17.735Z,10.50
2018-02-19T21:16:45.379Z,9.90
2018-02-19T21:19:13.807Z,10.50
2018-02-19T21:21:41.382Z,10.50
2018-02-19T21:24:09.015Z,10.50
2018-02-19T21:26:36.645Z,10.50
2018-02-19T21:29:05.036Z,10.40
2018-02-19T21:31:33.399Z,10.30
2018-02-19T21:34:01.051Z,10.30
2018-02-19T21:36:28.807Z,10.30
2018-02-19T21:38:56.432Z,10.40
2018-02-19T21:41:26.121Z,10.40
2018-02-19T21:43:53.725Z,10.40
2018-02-19T21:46:21.354Z,10.30
2018-02-19T21:48:49.853Z,10.20
2018-02-19T21:51:17.448Z,10.20
2018-02-19T21:53:45.086Z,10.20
2018-02-19T21:56:12.687Z,10.10
2018-02-19T21:58:40.328Z,10.10
2018-02-19T22:01:07.907Z,10.10
2018-02-19T22:03:35.529Z,10.10
2018-02-19T22:06:03.296Z,10.10
2018-02-19T22:08:30.927Z,10.00
2018-02-19T22:10:58.895Z,10.00
2018-02-19T22:13:28.016Z,10.00
2018-02-19T22:15:55.630Z,10.00
2018-02-19T22:18:23.284Z,10.00
2018-02-19T22:20:50.868Z,10.00
2018-02-19T22:23:19.311Z,10.00
2018-02-19T22:25:47.552Z,10.00
2018-02-19T22:28:15.918Z,10.10
2018-02-19T22:30:43.964Z,10.00
2018-02-19T22:33:11.926Z,10.10
2018-02-19T22:35:39.618Z,10.10
2018-02-19T22:38:07.224Z,10.10
2018-02-19T22:40:35.635Z,9.70
2018-02-19T22:43:03.248Z,10.20
2018-02-19T22:45:30.834Z,10.20
2018-02-19T22:47:59.166Z,10.20
2018-02-19T22:50:26.750Z,10.20
2018-02-19T22:52:54.312Z,10.20
2018-02-19T22:55:21.990Z,10.20
2018-02-19T22:57:49.907Z,10.20
2018-02-19T23:00:18.481Z,10.10
2018-02-19T23:02:47.002Z,10.00
2018-02-19T23:05:15.502Z,10.00
2018-02-19T23:07:43.125Z,10.00
2018-02-19T23:10:10.818Z,9.90
2018-02-19T23:12:38.432Z,9.80
2018-02-19T23:15:07.491Z,9.70
2018-02-19T23:17:35.900Z,9.60
2018-02-19T23:20:03.705Z,9.60
2018-02-19T23:22:31.395Z,9.60
2018-02-19T23:24:59.048Z,9.60
2018-02-19T23:27:26.821Z,9.50
2018-02-19T23:29:55.287Z,9.50
2018-02-19T23:32:22.872Z,9.40
2018-02-19T23:34:50.737Z,9.40
2018-02-19T23:37:18.334Z,9.40
2018-02-19T23:39:46.748Z,9.40
2018-02-19T23:42:14.509Z,9.40
2018-02-19T23:44:42.342Z,9.40
2018-02-19T23:47:10.041Z,9.40
2018-02-19T23:49:38.128Z,9.40
2018-02-19T23:52:05.821Z,9.40
2018-02-19T23:54:35.532Z,9.30
2018-02-19T23:57:03.184Z,9.30
2018-02-19T23:59:30.785Z,9.20
